sensor_id;sensor_type;location;lat;lon;timestamp;temperature;humidity
10911;DHT22;5508;49.150;11.030;2022-10-13T00:01:42;6.00;99.90
10911;DHT22;5508;49.150;11.030;2022-10-13T00:04:42;6.00;99.90
10911;DHT22;5508;49.150;11.030;2022-10-13T00:07:43;6.00;99.90
10911;DHT22;5508;49.150;11.030;2022-10-13T00:10:44;6.10;99.90
10911;DHT22;5508;49.150;11.030;2022-10-13T00:13:46;6.10;99.90
10911;DHT22;5508;49.150;11.030;2022-10-13T00:16:47;6.20;99.90
10911;DHT22;5508;49.150;11.030;2022-10-13T00:19:48;6.20;99.90
10911;DHT22;5508;49.150;11.030;2022-10-13T00:22:48;6.30;99.90
10911;DHT22;5508;49.150;11.030;2022-10-13T00:25:49;6.20;99.90
10911;DHT22;5508;49.150;11.030;2022-10-13T00:28:50;6.30;99.90
10911;DHT22;5508;49.150;11.030;2022-10-13T00:31:51;6.20;99.90
10911;DHT22;5508;49.150;11.030;2022-10-13T00:34:51;6.30;99.90
10911;DHT22;5508;49.150;11.030;2022-10-13T00:37:52;6.20;99.90
10911;DHT22;5508;49.150;11.030;2022-10-13T00:40:55;6.10;99.90
10911;DHT22;5508;49.150;11.030;2022-10-13T00:44:03;6.10;99.90
10911;DHT22;5508;49.150;11.030;2022-10-13T00:47:04;6.10;99.90
10911;DHT22;5508;49.150;11.030;2022-10-13T00:50:08;6.10;99.90
10911;DHT22;5508;49.150;11.030;2022-10-13T00:53:10;6.00;99.90
10911;DHT22;5508;49.150;11.030;2022-10-13T00:56:12;6.00;99.90
10911;DHT22;5508;49.150;11.030;2022-10-13T00:59:19;6.10;99.90
10911;DHT22;5508;49.150;11.030;2022-10-13T01:02:23;6.00;99.90
10911;DHT22;5508;49.150;11.030;2022-10-13T01:05:24;6.00;99.90
10911;DHT22;5508;49.150;11.030;2022-10-13T01:08:27;6.00;99.90
10911;DHT22;5508;49.150;11.030;2022-10-13T01:18:16;5.80;99.90
10911;DHT22;5508;49.150;11.030;2022-10-13T01:21:29;5.80;99.90
10911;DHT22;5508;49.150;11.030;2022-10-13T01:24:46;5.80;99.90
10911;DHT22;5508;49.150;11.030;2022-10-13T01:34:54;5.70;99.90
10911;DHT22;5508;49.150;11.030;2022-10-13T01:44:25;5.70;99.90
10911;DHT22;5508;49.150;11.030;2022-10-13T01:47:31;5.60;99.90
10911;DHT22;5508;49.150;11.030;2022-10-13T01:50:35;5.60;99.90
10911;DHT22;5508;49.150;11.030;2022-10-13T01:53:37;5.60;99.90
10911;DHT22;5508;49.150;11.030;2022-10-13T01:56:38;5.60;99.90
10911;DHT22;5508;49.150;11.030;2022-10-13T01:59:39;5.60;99.90
10911;DHT22;5508;49.150;11.030;2022-10-13T02:06:11;5.50;99.90
10911;DHT22;5508;49.150;11.030;2022-10-13T02:09:30;5.60;99.90
10911;DHT22;5508;49.150;11.030;2022-10-13T02:15:50;5.50;99.90
10911;DHT22;5508;49.150;11.030;2022-10-13T02:18:52;5.60;99.90
10911;DHT22;5508;49.150;11.030;2022-10-13T02:21:56;5.60;99.90
10911;DHT22;5508;49.150;11.030;2022-10-13T02:24:57;5.50;99.90
10911;DHT22;5508;49.150;11.030;2022-10-13T02:27:59;5.40;99.90
10911;DHT22;5508;49.150;11.030;2022-10-13T02:31:01;5.40;99.90
10911;DHT22;5508;49.150;11.030;2022-10-13T02:34:01;5.40;99.90
10911;DHT22;5508;49.150;11.030;2022-10-13T02:37:02;5.40;99.90
10911;DHT22;5508;49.150;11.030;2022-10-13T02:40:03;5.30;99.90
10911;DHT22;5508;49.150;11.030;2022-10-13T02:43:04;5.30;99.90
10911;DHT22;5508;49.150;11.030;2022-10-13T02:46:04;5.30;99.90
10911;DHT22;5508;49.150;11.030;2022-10-13T02:49:05;5.30;99.90
10911;DHT22;5508;49.150;11.030;2022-10-13T02:52:05;5.10;99.90
10911;DHT22;5508;49.150;11.030;2022-10-13T02:55:07;5.00;99.90
10911;DHT22;5508;49.150;11.030;2022-10-13T02:58:08;5.10;99.90
10911;DHT22;5508;49.150;11.030;2022-10-13T03:01:10;5.10;99.90
10911;DHT22;5508;49.150;11.030;2022-10-13T03:04:11;5.00;99.90
10911;DHT22;5508;49.150;11.030;2022-10-13T03:07:11;5.00;99.90
10911;DHT22;5508;49.150;11.030;2022-10-13T03:10:12;4.90;99.90
10911;DHT22;5508;49.150;11.030;2022-10-13T03:13:13;4.90;99.90
10911;DHT22;5508;49.150;11.030;2022-10-13T03:16:13;4.90;99.90
10911;DHT22;5508;49.150;11.030;2022-10-13T03:19:14;4.90;99.90
10911;DHT22;5508;49.150;11.030;2022-10-13T03:22:14;5.00;99.90
10911;DHT22;5508;49.150;11.030;2022-10-13T03:25:15;5.00;99.90
10911;DHT22;5508;49.150;11.030;2022-10-13T03:28:16;5.10;99.90
10911;DHT22;5508;49.150;11.030;2022-10-13T03:31:17;5.20;99.90
10911;DHT22;5508;49.150;11.030;2022-10-13T03:34:18;5.30;99.90
10911;DHT22;5508;49.150;11.030;2022-10-13T03:37:19;5.40;99.90
10911;DHT22;5508;49.150;11.030;2022-10-13T03:40:20;5.50;99.90
10911;DHT22;5508;49.150;11.030;2022-10-13T03:43:21;5.60;99.90
10911;DHT22;5508;49.150;11.030;2022-10-13T03:46:23;5.80;99.90
10911;DHT22;5508;49.150;11.030;2022-10-13T03:49:25;5.80;99.90
10911;DHT22;5508;49.150;11.030;2022-10-13T03:52:26;5.80;99.90
10911;DHT22;5508;49.150;11.030;2022-10-13T03:55:26;5.80;99.90
10911;DHT22;5508;49.150;11.030;2022-10-13T03:58:27;5.80;99.90
10911;DHT22;5508;49.150;11.030;2022-10-13T04:01:29;5.90;99.90
10911;DHT22;5508;49.150;11.030;2022-10-13T04:04:30;6.00;99.90
10911;DHT22;5508;49.150;11.030;2022-10-13T04:07:30;6.10;99.90
10911;DHT22;5508;49.150;11.030;2022-10-13T04:10:31;6.10;99.90
10911;DHT22;5508;49.150;11.030;2022-10-13T04:13:32;6.10;99.90
10911;DHT22;5508;49.150;11.030;2022-10-13T04:16:33;6.20;99.90
10911;DHT22;5508;49.150;11.030;2022-10-13T04:19:34;6.20;99.90
10911;DHT22;5508;49.150;11.030;2022-10-13T04:22:34;6.30;99.90
10911;DHT22;5508;49.150;11.030;2022-10-13T04:25:36;6.40;99.90
10911;DHT22;5508;49.150;11.030;2022-10-13T04:28:37;6.50;99.90
10911;DHT22;5508;49.150;11.030;2022-10-13T04:31:39;6.50;99.90
10911;DHT22;5508;49.150;11.030;2022-10-13T04:34:39;6.50;99.90
10911;DHT22;5508;49.150;11.030;2022-10-13T04:37:40;6.50;99.90
10911;DHT22;5508;49.150;11.030;2022-10-13T04:40:41;6.50;99.90
10911;DHT22;5508;49.150;11.030;2022-10-13T04:43:42;6.60;99.90
10911;DHT22;5508;49.150;11.030;2022-10-13T04:46:42;6.60;99.90
10911;DHT22;5508;49.150;11.030;2022-10-13T04:49:43;6.60;99.90
10911;DHT22;5508;49.150;11.030;2022-10-13T04:52:44;6.50;99.90
10911;DHT22;5508;49.150;11.030;2022-10-13T04:55:44;6.50;99.90
10911;DHT22;5508;49.150;11.030;2022-10-13T04:58:45;6.50;99.90
10911;DHT22;5508;49.150;11.030;2022-10-13T05:01:46;6.60;99.90
10911;DHT22;5508;49.150;11.030;2022-10-13T05:04:46;6.60;99.90
10911;DHT22;5508;49.150;11.030;2022-10-13T05:07:47;6.70;99.90
10911;DHT22;5508;49.150;11.030;2022-10-13T05:10:59;6.70;99.90
10911;DHT22;5508;49.150;11.030;2022-10-13T05:14:00;6.70;99.90
10911;DHT22;5508;49.150;11.030;2022-10-13T05:17:01;6.80;99.90
10911;DHT22;5508;49.150;11.030;2022-10-13T05:20:02;6.80;99.90
10911;DHT22;5508;49.150;11.030;2022-10-13T05:23:02;7.10;99.90
10911;DHT22;5508;49.150;11.030;2022-10-13T05:26:08;7.20;99.90
10911;DHT22;5508;49.150;11.030;2022-10-13T05:29:09;7.30;99.90
10911;DHT22;5508;49.150;11.030;2022-10-13T05:32:10;7.40;99.90
10911;DHT22;5508;49.150;11.030;2022-10-13T05:35:10;7.50;99.90
10911;DHT22;5508;49.150;11.030;2022-10-13T05:38:11;7.60;99.90
10911;DHT22;5508;49.150;11.030;2022-10-13T05:41:13;7.60;99.90
10911;DHT22;5508;49.150;11.030;2022-10-13T05:44:13;7.70;99.90
10911;DHT22;5508;49.150;11.030;2022-10-13T05:47:15;7.70;99.90
10911;DHT22;5508;49.150;11.030;2022-10-13T05:50:16;7.70;99.90
10911;DHT22;5508;49.150;11.030;2022-10-13T05:53:18;7.70;99.90
10911;DHT22;5508;49.150;11.030;2022-10-13T05:56:23;7.80;99.90
10911;DHT22;5508;49.150;11.030;2022-10-13T05:59:26;7.80;99.90
10911;DHT22;5508;49.150;11.030;2022-10-13T06:02:33;7.80;99.90
10911;DHT22;5508;49.150;11.030;2022-10-13T06:05:36;7.80;99.90
10911;DHT22;5508;49.150;11.030;2022-10-13T06:08:37;7.80;99.90
10911;DHT22;5508;49.150;11.030;2022-10-13T06:11:38;7.80;99.90
10911;DHT22;5508;49.150;11.030;2022-10-13T06:14:38;7.80;99.90
10911;DHT22;5508;49.150;11.030;2022-10-13T06:17:39;7.90;99.90
10911;DHT22;5508;49.150;11.030;2022-10-13T06:20:40;7.90;99.90
10911;DHT22;5508;49.150;11.030;2022-10-13T06:23:40;8.00;99.90
10911;DHT22;5508;49.150;11.030;2022-10-13T06:26:41;8.00;99.90
10911;DHT22;5508;49.150;11.030;2022-10-13T06:29:42;8.10;99.90
10911;DHT22;5508;49.150;11.030;2022-10-13T06:32:42;8.10;99.90
10911;DHT22;5508;49.150;11.030;2022-10-13T06:35:43;8.20;99.90
10911;DHT22;5508;49.150;11.030;2022-10-13T06:38:43;8.20;99.90
10911;DHT22;5508;49.150;11.030;2022-10-13T06:41:44;8.30;99.90
10911;DHT22;5508;49.150;11.030;2022-10-13T06:44:44;8.40;99.90
10911;DHT22;5508;49.150;11.030;2022-10-13T06:47:45;8.50;99.90
10911;DHT22;5508;49.150;11.030;2022-10-13T06:50:46;8.60;99.90
10911;DHT22;5508;49.150;11.030;2022-10-13T06:53:46;8.60;99.90
10911;DHT22;5508;49.150;11.030;2022-10-13T06:56:47;8.70;99.90
10911;DHT22;5508;49.150;11.030;2022-10-13T06:59:48;8.90;99.90
10911;DHT22;5508;49.150;11.030;2022-10-13T07:02:50;9.00;99.90
10911;DHT22;5508;49.150;11.030;2022-10-13T07:05:51;9.10;99.90
10911;DHT22;5508;49.150;11.030;2022-10-13T07:08:52;9.20;99.90
10911;DHT22;5508;49.150;11.030;2022-10-13T07:11:52;9.30;99.90
10911;DHT22;5508;49.150;11.030;2022-10-13T07:14:53;9.50;99.90
10911;DHT22;5508;49.150;11.030;2022-10-13T07:17:53;9.70;99.90
10911;DHT22;5508;49.150;11.030;2022-10-13T07:20:56;9.90;99.90
10911;DHT22;5508;49.150;11.030;2022-10-13T07:23:57;10.10;99.90
10911;DHT22;5508;49.150;11.030;2022-10-13T07:26:58;10.20;99.90
10911;DHT22;5508;49.150;11.030;2022-10-13T07:29:59;10.30;99.90
10911;DHT22;5508;49.150;11.030;2022-10-13T07:32:59;10.30;99.90
10911;DHT22;5508;49.150;11.030;2022-10-13T07:36:00;10.30;99.90
10911;DHT22;5508;49.150;11.030;2022-10-13T07:39:01;10.20;99.90
10911;DHT22;5508;49.150;11.030;2022-10-13T07:42:02;10.40;99.90
10911;DHT22;5508;49.150;11.030;2022-10-13T07:45:03;10.40;99.90
10911;DHT22;5508;49.150;11.030;2022-10-13T07:48:04;10.30;99.90
10911;DHT22;5508;49.150;11.030;2022-10-13T07:51:06;10.40;99.90
10911;DHT22;5508;49.150;11.030;2022-10-13T07:54:07;10.30;99.90
10911;DHT22;5508;49.150;11.030;2022-10-13T07:57:08;10.30;99.90
10911;DHT22;5508;49.150;11.030;2022-10-13T08:00:09;10.20;99.90
10911;DHT22;5508;49.150;11.030;2022-10-13T08:03:10;10.20;99.90
10911;DHT22;5508;49.150;11.030;2022-10-13T08:06:12;10.10;99.90
10911;DHT22;5508;49.150;11.030;2022-10-13T08:09:13;10.20;99.90
10911;DHT22;5508;49.150;11.030;2022-10-13T08:12:14;10.30;99.90
10911;DHT22;5508;49.150;11.030;2022-10-13T08:15:15;10.40;99.90
10911;DHT22;5508;49.150;11.030;2022-10-13T08:18:15;10.60;99.90
10911;DHT22;5508;49.150;11.030;2022-10-13T08:21:17;10.80;99.90
10911;DHT22;5508;49.150;11.030;2022-10-13T08:24:18;11.10;99.90
10911;DHT22;5508;49.150;11.030;2022-10-13T08:27:22;11.30;99.90
10911;DHT22;5508;49.150;11.030;2022-10-13T08:30:23;11.40;99.90
10911;DHT22;5508;49.150;11.030;2022-10-13T08:33:25;11.60;99.90
10911;DHT22;5508;49.150;11.030;2022-10-13T08:36:25;11.60;99.90
10911;DHT22;5508;49.150;11.030;2022-10-13T08:39:26;11.50;99.90
10911;DHT22;5508;49.150;11.030;2022-10-13T08:42:27;11.60;99.90
10911;DHT22;5508;49.150;11.030;2022-10-13T08:45:29;11.90;99.90
10911;DHT22;5508;49.150;11.030;2022-10-13T08:48:31;11.80;99.90
10911;DHT22;5508;49.150;11.030;2022-10-13T08:51:33;11.90;99.90
10911;DHT22;5508;49.150;11.030;2022-10-13T08:54:33;11.60;99.90
10911;DHT22;5508;49.150;11.030;2022-10-13T08:57:34;11.70;99.90
10911;DHT22;5508;49.150;11.030;2022-10-13T09:00:36;12.00;99.90
10911;DHT22;5508;49.150;11.030;2022-10-13T09:03:52;12.10;99.90
10911;DHT22;5508;49.150;11.030;2022-10-13T09:07:09;12.30;99.90
10911;DHT22;5508;49.150;11.030;2022-10-13T09:10:11;12.40;99.90
10911;DHT22;5508;49.150;11.030;2022-10-13T09:13:13;12.60;99.90
10911;DHT22;5508;49.150;11.030;2022-10-13T09:16:14;12.70;99.90
10911;DHT22;5508;49.150;11.030;2022-10-13T09:19:28;12.80;99.90
10911;DHT22;5508;49.150;11.030;2022-10-13T09:25:39;12.50;99.90
10911;DHT22;5508;49.150;11.030;2022-10-13T09:28:41;12.80;99.90
10911;DHT22;5508;49.150;11.030;2022-10-13T09:31:41;13.10;99.90
10911;DHT22;5508;49.150;11.030;2022-10-13T09:34:42;13.00;99.90
10911;DHT22;5508;49.150;11.030;2022-10-13T09:37:43;13.50;99.90
10911;DHT22;5508;49.150;11.030;2022-10-13T09:40:58;13.60;99.90
10911;DHT22;5508;49.150;11.030;2022-10-13T09:44:11;13.80;99.20
10911;DHT22;5508;49.150;11.030;2022-10-13T09:47:19;13.80;97.00
10911;DHT22;5508;49.150;11.030;2022-10-13T09:50:30;13.80;96.40
10911;DHT22;5508;49.150;11.030;2022-10-13T09:53:38;13.80;95.90
10911;DHT22;5508;49.150;11.030;2022-10-13T09:56:49;13.80;95.00
10911;DHT22;5508;49.150;11.030;2022-10-13T10:00:01;13.90;95.80
10911;DHT22;5508;49.150;11.030;2022-10-13T10:03:14;13.80;97.40
10911;DHT22;5508;49.150;11.030;2022-10-13T10:06:17;14.00;95.60
10911;DHT22;5508;49.150;11.030;2022-10-13T10:12:34;14.20;95.10
10911;DHT22;5508;49.150;11.030;2022-10-13T10:15:52;14.20;91.50
10911;DHT22;5508;49.150;11.030;2022-10-13T10:19:05;14.20;93.60
10911;DHT22;5508;49.150;11.030;2022-10-13T10:25:39;13.60;95.10
10911;DHT22;5508;49.150;11.030;2022-10-13T10:29:10;13.40;96.00
10911;DHT22;5508;49.150;11.030;2022-10-13T10:32:41;13.20;96.10
10911;DHT22;5508;49.150;11.030;2022-10-13T10:35:54;13.00;97.00
10911;DHT22;5508;49.150;11.030;2022-10-13T10:39:07;13.10;98.20
10911;DHT22;5508;49.150;11.030;2022-10-13T10:45:37;13.20;99.10
10911;DHT22;5508;49.150;11.030;2022-10-13T10:48:39;13.40;98.40
10911;DHT22;5508;49.150;11.030;2022-10-13T10:51:39;13.60;97.00
10911;DHT22;5508;49.150;11.030;2022-10-13T10:54:51;13.80;96.00
10911;DHT22;5508;49.150;11.030;2022-10-13T11:04:44;13.50;96.90
10911;DHT22;5508;49.150;11.030;2022-10-13T11:10:46;13.70;96.20
10911;DHT22;5508;49.150;11.030;2022-10-13T11:13:50;13.80;95.60
10911;DHT22;5508;49.150;11.030;2022-10-13T11:23:34;14.60;91.80
10911;DHT22;5508;49.150;11.030;2022-10-13T11:26:43;14.70;90.40
10911;DHT22;5508;49.150;11.030;2022-10-13T11:32:45;14.70;91.20
10911;DHT22;5508;49.150;11.030;2022-10-13T11:35:55;14.80;89.30
10911;DHT22;5508;49.150;11.030;2022-10-13T11:55:56;14.00;95.50
10911;DHT22;5508;49.150;11.030;2022-10-13T11:58:57;14.10;94.10
10911;DHT22;5508;49.150;11.030;2022-10-13T12:05:27;13.90;93.70
10911;DHT22;5508;49.150;11.030;2022-10-13T12:08:31;13.70;95.00
10911;DHT22;5508;49.150;11.030;2022-10-13T12:11:35;13.80;95.70
10911;DHT22;5508;49.150;11.030;2022-10-13T12:14:39;13.80;96.30
10911;DHT22;5508;49.150;11.030;2022-10-13T12:17:43;13.90;94.70
10911;DHT22;5508;49.150;11.030;2022-10-13T12:20:51;13.70;96.00
10911;DHT22;5508;49.150;11.030;2022-10-13T12:24:06;13.80;97.40
10911;DHT22;5508;49.150;11.030;2022-10-13T12:27:21;13.60;96.20
10911;DHT22;5508;49.150;11.030;2022-10-13T12:30:28;13.70;96.80
10911;DHT22;5508;49.150;11.030;2022-10-13T12:33:33;13.90;96.70
10911;DHT22;5508;49.150;11.030;2022-10-13T12:36:37;14.10;95.40
10911;DHT22;5508;49.150;11.030;2022-10-13T12:39:38;14.10;95.20
10911;DHT22;5508;49.150;11.030;2022-10-13T12:42:39;14.30;96.40
10911;DHT22;5508;49.150;11.030;2022-10-13T12:45:41;14.40;96.00
10911;DHT22;5508;49.150;11.030;2022-10-13T12:48:42;14.50;93.00
10911;DHT22;5508;49.150;11.030;2022-10-13T12:51:45;14.00;94.80
10911;DHT22;5508;49.150;11.030;2022-10-13T12:54:49;14.10;95.70
10911;DHT22;5508;49.150;11.030;2022-10-13T12:57:50;14.10;95.80
10911;DHT22;5508;49.150;11.030;2022-10-13T13:01:06;13.90;96.80
10911;DHT22;5508;49.150;11.030;2022-10-13T13:04:30;13.70;97.10
10911;DHT22;5508;49.150;11.030;2022-10-13T13:07:34;13.70;98.50
10911;DHT22;5508;49.150;11.030;2022-10-13T13:10:36;13.70;99.40
10911;DHT22;5508;49.150;11.030;2022-10-13T13:13:36;13.70;99.40
10911;DHT22;5508;49.150;11.030;2022-10-13T13:16:37;13.50;99.60
10911;DHT22;5508;49.150;11.030;2022-10-13T13:19:39;13.50;99.90
10911;DHT22;5508;49.150;11.030;2022-10-13T13:22:40;13.60;99.90
10911;DHT22;5508;49.150;11.030;2022-10-13T13:25:41;13.50;98.50
10911;DHT22;5508;49.150;11.030;2022-10-13T13:28:48;13.50;99.90
10911;DHT22;5508;49.150;11.030;2022-10-13T13:31:49;13.70;99.10
10911;DHT22;5508;49.150;11.030;2022-10-13T13:34:50;13.90;97.40
10911;DHT22;5508;49.150;11.030;2022-10-13T13:37:51;14.10;97.40
10911;DHT22;5508;49.150;11.030;2022-10-13T13:40:52;14.10;96.20
10911;DHT22;5508;49.150;11.030;2022-10-13T13:43:53;14.00;97.80
10911;DHT22;5508;49.150;11.030;2022-10-13T13:46:53;14.10;97.40
10911;DHT22;5508;49.150;11.030;2022-10-13T13:49:55;14.10;96.80
10911;DHT22;5508;49.150;11.030;2022-10-13T13:52:57;14.30;95.60
10911;DHT22;5508;49.150;11.030;2022-10-13T13:55:57;14.20;94.30
10911;DHT22;5508;49.150;11.030;2022-10-13T13:58:58;14.10;94.20
10911;DHT22;5508;49.150;11.030;2022-10-13T14:01:59;14.00;94.80
10911;DHT22;5508;49.150;11.030;2022-10-13T14:05:00;14.00;94.00
10911;DHT22;5508;49.150;11.030;2022-10-13T14:08:00;14.00;95.10
10911;DHT22;5508;49.150;11.030;2022-10-13T14:11:05;13.80;95.70
10911;DHT22;5508;49.150;11.030;2022-10-13T14:14:05;13.80;96.40
10911;DHT22;5508;49.150;11.030;2022-10-13T14:17:06;13.60;96.50
10911;DHT22;5508;49.150;11.030;2022-10-13T14:20:07;13.70;97.80
10911;DHT22;5508;49.150;11.030;2022-10-13T14:23:07;13.60;96.90
10911;DHT22;5508;49.150;11.030;2022-10-13T14:26:08;13.70;97.70
10911;DHT22;5508;49.150;11.030;2022-10-13T14:29:08;13.70;97.30
10911;DHT22;5508;49.150;11.030;2022-10-13T14:32:09;13.70;97.50
10911;DHT22;5508;49.150;11.030;2022-10-13T14:35:10;13.80;97.10
10911;DHT22;5508;49.150;11.030;2022-10-13T14:38:10;13.90;97.20
10911;DHT22;5508;49.150;11.030;2022-10-13T14:41:11;14.10;95.10
10911;DHT22;5508;49.150;11.030;2022-10-13T14:44:12;14.10;95.10
10911;DHT22;5508;49.150;11.030;2022-10-13T14:47:13;14.10;95.10
10911;DHT22;5508;49.150;11.030;2022-10-13T14:50:14;14.00;95.40
10911;DHT22;5508;49.150;11.030;2022-10-13T14:53:14;13.90;95.70
10911;DHT22;5508;49.150;11.030;2022-10-13T14:56:18;13.90;95.30
10911;DHT22;5508;49.150;11.030;2022-10-13T14:59:19;13.90;96.60
10911;DHT22;5508;49.150;11.030;2022-10-13T15:02:20;13.90;95.50
10911;DHT22;5508;49.150;11.030;2022-10-13T15:05:21;14.00;95.10
10911;DHT22;5508;49.150;11.030;2022-10-13T15:08:22;14.00;94.60
10911;DHT22;5508;49.150;11.030;2022-10-13T15:11:23;14.00;95.20
10911;DHT22;5508;49.150;11.030;2022-10-13T15:14:24;14.10;94.50
10911;DHT22;5508;49.150;11.030;2022-10-13T15:17:24;14.10;94.30
10911;DHT22;5508;49.150;11.030;2022-10-13T15:20:25;14.10;94.80
10911;DHT22;5508;49.150;11.030;2022-10-13T15:23:26;14.20;94.40
10911;DHT22;5508;49.150;11.030;2022-10-13T15:26:27;14.00;95.30
10911;DHT22;5508;49.150;11.030;2022-10-13T15:29:27;14.10;96.30
10911;DHT22;5508;49.150;11.030;2022-10-13T15:32:28;13.90;97.40
10911;DHT22;5508;49.150;11.030;2022-10-13T15:35:29;13.90;98.60
10911;DHT22;5508;49.150;11.030;2022-10-13T15:38:30;13.70;99.90
10911;DHT22;5508;49.150;11.030;2022-10-13T15:41:30;13.60;99.60
10911;DHT22;5508;49.150;11.030;2022-10-13T15:44:31;13.60;98.00
10911;DHT22;5508;49.150;11.030;2022-10-13T15:47:32;13.50;99.60
10911;DHT22;5508;49.150;11.030;2022-10-13T15:50:38;13.40;99.90
10911;DHT22;5508;49.150;11.030;2022-10-13T15:53:40;13.40;99.90
10911;DHT22;5508;49.150;11.030;2022-10-13T15:56:40;13.30;99.90
10911;DHT22;5508;49.150;11.030;2022-10-13T15:59:41;13.10;99.90
10911;DHT22;5508;49.150;11.030;2022-10-13T16:02:42;12.90;99.90
10911;DHT22;5508;49.150;11.030;2022-10-13T16:05:44;12.80;99.90
10911;DHT22;5508;49.150;11.030;2022-10-13T16:08:45;12.60;99.90
10911;DHT22;5508;49.150;11.030;2022-10-13T16:11:45;12.50;99.90
10911;DHT22;5508;49.150;11.030;2022-10-13T16:14:46;12.40;99.90
10911;DHT22;5508;49.150;11.030;2022-10-13T16:17:46;12.40;99.90
10911;DHT22;5508;49.150;11.030;2022-10-13T16:20:47;12.30;99.90
10911;DHT22;5508;49.150;11.030;2022-10-13T16:23:48;12.20;99.90
10911;DHT22;5508;49.150;11.030;2022-10-13T16:26:48;12.20;99.90
10911;DHT22;5508;49.150;11.030;2022-10-13T16:29:49;12.10;99.90
10911;DHT22;5508;49.150;11.030;2022-10-13T16:32:50;12.00;99.90
10911;DHT22;5508;49.150;11.030;2022-10-13T16:35:50;12.10;99.90
10911;DHT22;5508;49.150;11.030;2022-10-13T16:38:52;12.00;99.90
10911;DHT22;5508;49.150;11.030;2022-10-13T16:41:54;12.00;99.90
10911;DHT22;5508;49.150;11.030;2022-10-13T16:44:54;11.90;99.90
10911;DHT22;5508;49.150;11.030;2022-10-13T16:47:55;11.90;99.90
10911;DHT22;5508;49.150;11.030;2022-10-13T16:50:56;11.80;99.90
10911;DHT22;5508;49.150;11.030;2022-10-13T16:53:58;11.70;99.90
10911;DHT22;5508;49.150;11.030;2022-10-13T16:56:59;11.70;99.90
10911;DHT22;5508;49.150;11.030;2022-10-13T16:59:59;11.60;99.90
10911;DHT22;5508;49.150;11.030;2022-10-13T17:03:00;11.60;99.90
10911;DHT22;5508;49.150;11.030;2022-10-13T17:06:00;11.60;99.90
10911;DHT22;5508;49.150;11.030;2022-10-13T17:09:01;11.60;99.90
10911;DHT22;5508;49.150;11.030;2022-10-13T17:12:03;11.50;99.90
10911;DHT22;5508;49.150;11.030;2022-10-13T17:15:04;11.40;99.90
10911;DHT22;5508;49.150;11.030;2022-10-13T17:18:05;11.40;99.90
10911;DHT22;5508;49.150;11.030;2022-10-13T17:21:07;11.30;99.90
10911;DHT22;5508;49.150;11.030;2022-10-13T17:24:08;11.30;99.90
10911;DHT22;5508;49.150;11.030;2022-10-13T17:27:09;11.20;99.90
10911;DHT22;5508;49.150;11.030;2022-10-13T17:30:09;11.10;99.90
10911;DHT22;5508;49.150;11.030;2022-10-13T17:33:10;11.10;99.90
10911;DHT22;5508;49.150;11.030;2022-10-13T17:36:26;11.00;99.90
10911;DHT22;5508;49.150;11.030;2022-10-13T17:39:27;11.00;99.90
10911;DHT22;5508;49.150;11.030;2022-10-13T17:42:28;11.00;99.90
10911;DHT22;5508;49.150;11.030;2022-10-13T17:45:29;11.00;99.90
10911;DHT22;5508;49.150;11.030;2022-10-13T17:48:30;11.00;99.90
10911;DHT22;5508;49.150;11.030;2022-10-13T17:51:30;11.00;99.90
10911;DHT22;5508;49.150;11.030;2022-10-13T17:54:31;10.90;99.90
10911;DHT22;5508;49.150;11.030;2022-10-13T17:57:32;10.90;99.90
10911;DHT22;5508;49.150;11.030;2022-10-13T18:00:32;10.80;99.90
10911;DHT22;5508;49.150;11.030;2022-10-13T18:03:35;10.80;99.90
10911;DHT22;5508;49.150;11.030;2022-10-13T18:06:37;10.80;99.90
10911;DHT22;5508;49.150;11.030;2022-10-13T18:09:43;10.80;99.90
10911;DHT22;5508;49.150;11.030;2022-10-13T18:12:44;10.80;99.90
10911;DHT22;5508;49.150;11.030;2022-10-13T18:15:44;10.70;99.90
10911;DHT22;5508;49.150;11.030;2022-10-13T18:18:46;10.70;99.90
10911;DHT22;5508;49.150;11.030;2022-10-13T18:21:47;10.70;99.90
10911;DHT22;5508;49.150;11.030;2022-10-13T18:24:48;10.70;99.90
10911;DHT22;5508;49.150;11.030;2022-10-13T18:27:49;10.70;99.90
10911;DHT22;5508;49.150;11.030;2022-10-13T18:30:49;10.70;99.90
10911;DHT22;5508;49.150;11.030;2022-10-13T18:33:50;10.70;99.90
10911;DHT22;5508;49.150;11.030;2022-10-13T18:36:52;10.70;99.90
10911;DHT22;5508;49.150;11.030;2022-10-13T18:39:56;10.70;99.90
10911;DHT22;5508;49.150;11.030;2022-10-13T18:42:56;10.70;99.90
10911;DHT22;5508;49.150;11.030;2022-10-13T18:46:00;10.70;99.90
10911;DHT22;5508;49.150;11.030;2022-10-13T18:49:02;10.70;99.90
10911;DHT22;5508;49.150;11.030;2022-10-13T18:52:03;10.70;99.90
10911;DHT22;5508;49.150;11.030;2022-10-13T18:55:04;10.70;99.90
10911;DHT22;5508;49.150;11.030;2022-10-13T18:58:05;10.70;99.90
10911;DHT22;5508;49.150;11.030;2022-10-13T19:01:08;10.70;99.90
10911;DHT22;5508;49.150;11.030;2022-10-13T19:04:09;10.70;99.90
10911;DHT22;5508;49.150;11.030;2022-10-13T19:07:12;10.70;99.90
10911;DHT22;5508;49.150;11.030;2022-10-13T19:10:12;10.70;99.90
10911;DHT22;5508;49.150;11.030;2022-10-13T19:13:13;10.70;99.90
10911;DHT22;5508;49.150;11.030;2022-10-13T19:16:17;10.60;99.90
10911;DHT22;5508;49.150;11.030;2022-10-13T19:19:18;10.70;99.90
10911;DHT22;5508;49.150;11.030;2022-10-13T19:22:18;10.80;99.90
10911;DHT22;5508;49.150;11.030;2022-10-13T19:25:19;10.90;99.90
10911;DHT22;5508;49.150;11.030;2022-10-13T19:28:19;10.90;99.90
10911;DHT22;5508;49.150;11.030;2022-10-13T19:31:22;10.90;99.90
10911;DHT22;5508;49.150;11.030;2022-10-13T19:34:23;10.80;99.90
10911;DHT22;5508;49.150;11.030;2022-10-13T19:37:24;10.80;99.90
10911;DHT22;5508;49.150;11.030;2022-10-13T19:40:25;10.90;99.90
10911;DHT22;5508;49.150;11.030;2022-10-13T19:43:25;10.80;99.90
10911;DHT22;5508;49.150;11.030;2022-10-13T19:46:26;10.70;99.90
10911;DHT22;5508;49.150;11.030;2022-10-13T19:49:26;10.70;99.90
10911;DHT22;5508;49.150;11.030;2022-10-13T19:52:27;10.70;99.90
10911;DHT22;5508;49.150;11.030;2022-10-13T19:55:28;10.70;99.90
10911;DHT22;5508;49.150;11.030;2022-10-13T19:58:29;10.70;99.90
10911;DHT22;5508;49.150;11.030;2022-10-13T20:01:31;10.70;99.90
10911;DHT22;5508;49.150;11.030;2022-10-13T20:04:32;10.70;99.90
10911;DHT22;5508;49.150;11.030;2022-10-13T20:07:33;10.60;99.90
10911;DHT22;5508;49.150;11.030;2022-10-13T20:10:40;10.60;99.90
10911;DHT22;5508;49.150;11.030;2022-10-13T20:13:44;10.60;99.90
10911;DHT22;5508;49.150;11.030;2022-10-13T20:16:45;10.60;99.90
10911;DHT22;5508;49.150;11.030;2022-10-13T20:19:46;10.50;99.90
10911;DHT22;5508;49.150;11.030;2022-10-13T20:22:47;10.50;99.90
10911;DHT22;5508;49.150;11.030;2022-10-13T20:25:47;10.60;99.90
10911;DHT22;5508;49.150;11.030;2022-10-13T20:28:49;10.60;99.90
10911;DHT22;5508;49.150;11.030;2022-10-13T20:31:50;10.50;99.90
10911;DHT22;5508;49.150;11.030;2022-10-13T20:34:50;10.50;99.90
10911;DHT22;5508;49.150;11.030;2022-10-13T20:37:51;10.50;99.90
10911;DHT22;5508;49.150;11.030;2022-10-13T20:40:52;10.50;99.90